Terminal Aerodrome Forecast
Issued by NWS Tulsa, OK

Home | Current Version | Previous Version | Text Only | Print | Product List | Glossary On
Versions: 1 2 3 4 5 6 7 8 9 10 11 12 13 14 15 16 17 18 19 20
450
FTUS44 KTSA 250520
TAFFSM
TAF
KFSM 250520Z 2506/2606 08003KT P6SM OVC120
     FM251200 04007KT P6SM BKN250
     FM260000 08003KT P6SM BKN250=

USA.gov is the U.S. government's official web portal to all federal, state and local government web resources and services.